createdAt,value
2018-05-03T00:02:33.833Z,3.00
2018-05-03T00:23:08.453Z,3.03
2018-05-03T00:43:40.999Z,2.70
2018-05-03T01:04:14.426Z,3.07
2018-05-03T01:24:50.314Z,2.87
2018-05-03T01:45:24.668Z,2.90
2018-05-03T02:05:58.372Z,3.33
2018-05-03T02:26:31.212Z,3.30
2018-05-03T02:47:11.405Z,3.20
2018-05-03T03:29:40.068Z,3.10
2018-05-03T03:50:16.308Z,3.33
2018-05-03T04:10:52.360Z,3.30
2018-05-03T04:31:28.870Z,3.00
2018-05-03T04:52:06.592Z,3.30
2018-05-03T05:12:41.866Z,3.70
2018-05-03T05:33:18.060Z,3.90
2018-05-03T05:53:53.325Z,5.23
2018-05-03T06:14:27.684Z,4.50
2018-05-03T06:35:04.795Z,4.47
2018-05-03T06:55:39.145Z,6.73
2018-05-03T07:16:13.270Z,8.10
2018-05-03T07:36:48.460Z,9.83
2018-05-03T07:57:23.729Z,10.10
2018-05-03T08:17:59.007Z,11.43
2018-05-03T08:38:37.345Z,7.00
2018-05-03T08:59:12.618Z,4.70
2018-05-03T09:19:48.810Z,6.33
2018-05-03T09:40:25.928Z,4.37
2018-05-03T10:01:01.566Z,3.57
2018-05-03T10:21:36.794Z,4.87
2018-05-03T10:42:10.823Z,4.70
2018-05-03T11:02:47.014Z,4.70
2018-05-03T11:23:23.223Z,3.47
2018-05-03T11:44:02.472Z,2.17
2018-05-03T12:04:38.356Z,2.20
2018-05-03T12:25:13.010Z,2.47
2018-05-03T12:45:46.134Z,3.10
2018-05-03T13:06:26.630Z,2.53
2018-05-03T13:27:01.605Z,2.50
2018-05-03T13:47:39.973Z,2.90
2018-05-03T14:08:16.130Z,2.33
2018-05-03T14:28:50.485Z,2.70
2018-05-03T14:49:27.599Z,2.37
2018-05-03T15:10:03.793Z,2.90
2018-05-03T15:30:38.140Z,2.57
2018-05-03T15:51:14.332Z,2.77
2018-05-03T16:11:48.685Z,3.03
2018-05-03T16:32:22.732Z,3.90
2018-05-03T16:52:57.267Z,2.83
2018-05-03T17:13:34.518Z,2.97
2018-05-03T17:34:10.958Z,3.23
2018-05-03T17:54:47.004Z,2.40
2018-05-03T18:15:20.010Z,2.67
2018-05-03T18:35:58.045Z,2.83
2018-05-03T18:56:35.471Z,2.50
2018-05-03T19:17:11.664Z,2.63
2018-05-03T19:37:46.939Z,2.83
2018-05-03T19:58:22.208Z,2.43
2018-05-03T20:18:57.174Z,2.57
2018-05-03T20:39:30.599Z,3.50
2018-05-03T21:00:05.879Z,2.27
2018-05-03T21:20:41.145Z,2.60
2018-05-03T21:41:14.267Z,2.80
2018-05-03T22:01:50.462Z,2.07
2018-05-03T22:22:21.809Z,2.20
2018-05-03T22:42:56.088Z,2.27
2018-05-03T23:03:29.385Z,1.80
2018-05-03T23:24:03.615Z,2.80
2018-05-03T23:44:38.527Z,2.90
